createdAt,value
2023-02-17T00:01:14.237Z,8.40
2023-02-17T00:03:42.373Z,8.40
2023-02-17T00:06:12.111Z,8.50
2023-02-17T00:08:40.074Z,8.40
2023-02-17T00:11:09.680Z,8.50
2023-02-17T00:13:37.679Z,8.40
2023-02-17T00:16:08.865Z,8.60
2023-02-17T00:18:37.417Z,8.50
2023-02-17T00:21:16.469Z,8.60
2023-02-17T00:23:44.835Z,8.50
2023-02-17T00:26:14.914Z,8.50
2023-02-17T00:28:44.373Z,8.60
2023-02-17T00:31:15.725Z,8.60
2023-02-17T00:33:43.820Z,8.60
2023-02-17T00:36:14.223Z,8.60
2023-02-17T00:38:42.250Z,8.60
2023-02-17T00:41:10.386Z,8.70
2023-02-17T00:43:39.827Z,8.70
2023-02-17T00:46:08.428Z,8.60
2023-02-17T00:48:36.790Z,8.60
2023-02-17T00:51:06.269Z,8.60
2023-02-17T00:53:36.424Z,8.70
2023-02-17T00:56:05.590Z,8.70
2023-02-17T00:58:34.030Z,8.70
2023-02-17T01:01:04.184Z,8.70
2023-02-17T01:03:32.769Z,8.70
2023-02-17T01:06:01.121Z,8.70
2023-02-17T01:08:29.430Z,8.80
2023-02-17T01:10:58.498Z,8.70
2023-02-17T01:13:26.560Z,8.90
2023-02-17T01:15:56.513Z,8.80
2023-02-17T01:18:26.002Z,8.80
2023-02-17T01:20:54.318Z,8.80
2023-02-17T01:23:22.579Z,8.90
2023-02-17T01:25:51.594Z,8.80
2023-02-17T01:28:23.083Z,8.80
2023-02-17T01:30:51.160Z,8.80
2023-02-17T01:33:19.167Z,8.80
2023-02-17T01:35:48.550Z,8.90
2023-02-17T01:38:16.584Z,8.90
2023-02-17T01:40:48.737Z,8.90
2023-02-17T01:43:18.225Z,8.90
2023-02-17T01:45:49.860Z,8.90
2023-02-17T01:48:22.779Z,8.90
2023-02-17T01:50:56.500Z,9.00
2023-02-17T01:53:30.667Z,9.00
2023-02-17T01:55:59.095Z,9.00
2023-02-17T01:58:29.292Z,9.00
2023-02-17T02:00:59.256Z,9.00
2023-02-17T02:03:28.221Z,9.10
2023-02-17T02:05:58.159Z,9.10
2023-02-17T02:08:31.736Z,9.10
2023-02-17T02:10:59.744Z,9.10
2023-02-17T02:13:28.420Z,9.10
2023-02-17T02:16:08.129Z,9.00
2023-02-17T02:18:50.656Z,9.00
2023-02-17T02:21:54.825Z,9.10
2023-02-17T02:24:29.480Z,9.10
2023-02-17T02:27:34.050Z,9.10
2023-02-17T02:30:19.190Z,9.20
2023-02-17T02:33:02.769Z,9.10
2023-02-17T02:35:43.561Z,9.10
2023-02-17T02:38:16.171Z,9.10
2023-02-17T02:40:48.208Z,9.10
2023-02-17T02:43:16.946Z,9.20
2023-02-17T02:45:45.062Z,9.20
2023-02-17T02:48:14.535Z,9.20
2023-02-17T02:50:56.630Z,9.20
2023-02-17T02:53:49.935Z,9.20
2023-02-17T02:56:28.354Z,9.20
2023-02-17T02:59:06.960Z,9.20
2023-02-17T03:01:42.372Z,9.20
2023-02-17T03:04:16.200Z,9.20
2023-02-17T03:06:49.140Z,9.20
2023-02-17T03:09:22.488Z,9.20
2023-02-17T03:11:50.775Z,9.30
2023-02-17T03:14:21.442Z,9.30
2023-02-17T03:16:50.715Z,9.30
2023-02-17T03:19:24.105Z,9.30
2023-02-17T03:21:58.086Z,9.30
2023-02-17T03:24:26.250Z,9.30
2023-02-17T03:26:54.294Z,9.30
2023-02-17T03:29:22.312Z,9.30
2023-02-17T03:31:50.422Z,9.30
2023-02-17T03:34:19.885Z,9.30
2023-02-17T03:36:48.686Z,9.40
2023-02-17T03:39:16.854Z,9.40
2023-02-17T03:41:44.878Z,9.30
2023-02-17T03:44:12.952Z,9.40
2023-02-17T03:46:41.176Z,9.40
2023-02-17T03:49:09.238Z,9.40
2023-02-17T03:51:38.615Z,9.40
2023-02-17T03:54:06.710Z,9.40
2023-02-17T03:56:34.737Z,9.40
2023-02-17T03:59:02.771Z,9.40
2023-02-17T04:01:31.211Z,9.40
2023-02-17T04:03:59.255Z,9.40
2023-02-17T04:06:27.294Z,9.40
2023-02-17T04:08:56.639Z,9.40
2023-02-17T04:11:24.664Z,9.40
2023-02-17T04:13:52.688Z,9.40
2023-02-17T04:16:20.881Z,9.40
2023-02-17T04:18:48.889Z,9.40
2023-02-17T04:21:16.972Z,9.50
2023-02-17T04:23:46.049Z,9.40
2023-02-17T04:26:15.395Z,9.50
2023-02-17T04:28:44.941Z,9.50
2023-02-17T04:31:13.116Z,9.50
2023-02-17T04:33:41.234Z,9.50
2023-02-17T04:36:09.562Z,9.50
2023-02-17T04:38:37.564Z,9.40
2023-02-17T04:41:06.218Z,9.50
2023-02-17T04:43:35.588Z,9.50
2023-02-17T04:46:03.849Z,9.50
2023-02-17T04:48:32.148Z,9.50
2023-02-17T04:51:00.173Z,9.50
2023-02-17T04:53:28.704Z,9.50
2023-02-17T04:55:56.713Z,9.50
2023-02-17T04:58:24.757Z,9.50
2023-02-17T05:00:54.105Z,9.60
2023-02-17T05:03:22.148Z,9.50
2023-02-17T05:05:51.206Z,9.60
2023-02-17T05:08:19.229Z,9.60
2023-02-17T05:10:47.227Z,9.60
2023-02-17T05:13:15.203Z,9.60
2023-02-17T05:15:44.525Z,9.60
2023-02-17T05:18:14.479Z,9.60
2023-02-17T05:20:42.826Z,9.60
2023-02-17T05:23:10.929Z,9.60
2023-02-17T05:25:40.827Z,9.60
2023-02-17T05:28:08.918Z,9.70
2023-02-17T05:30:36.941Z,9.70
2023-02-17T05:33:05.068Z,9.70
2023-02-17T05:35:35.423Z,9.60
2023-02-17T05:38:03.472Z,9.70
2023-02-17T05:40:31.526Z,9.60
2023-02-17T05:42:59.602Z,9.70
2023-02-17T05:45:27.578Z,9.70
2023-02-17T05:47:55.584Z,9.70
2023-02-17T05:50:23.622Z,9.80
2023-02-17T05:52:53.099Z,9.70
2023-02-17T05:55:22.167Z,9.70
2023-02-17T05:57:50.202Z,9.70
2023-02-17T06:00:18.708Z,9.70
2023-02-17T06:02:46.758Z,9.60
2023-02-17T06:05:15.105Z,9.60
2023-02-17T06:07:43.419Z,9.60
2023-02-17T06:10:13.104Z,9.60
2023-02-17T06:12:41.510Z,9.60
2023-02-17T06:15:09.863Z,9.70
2023-02-17T06:17:37.909Z,9.70
2023-02-17T06:20:07.346Z,9.70
2023-02-17T06:22:35.697Z,9.70
2023-02-17T06:25:03.703Z,9.70
2023-02-17T06:27:33.107Z,9.70
2023-02-17T06:30:01.211Z,9.70
2023-02-17T06:32:29.444Z,9.60
2023-02-17T06:34:57.501Z,9.70
2023-02-17T06:37:25.496Z,9.70
2023-02-17T06:39:53.478Z,9.70
2023-02-17T06:42:21.588Z,9.70
2023-02-17T06:44:50.963Z,9.70
2023-02-17T06:47:19.009Z,9.70
2023-02-17T06:49:47.004Z,9.70
2023-02-17T06:52:15.048Z,9.70
2023-02-17T06:54:43.429Z,9.60
2023-02-17T06:57:11.453Z,9.70
2023-02-17T06:59:39.518Z,9.60
2023-02-17T07:02:12.317Z,9.70
2023-02-17T07:04:40.454Z,9.60
2023-02-17T07:07:09.121Z,9.70
2023-02-17T07:09:38.532Z,9.70
2023-02-17T07:12:07.415Z,9.70
2023-02-17T07:14:36.542Z,9.60
2023-02-17T07:17:04.621Z,9.60
2023-02-17T07:19:34.015Z,9.60
2023-02-17T07:22:02.475Z,9.70
2023-02-17T07:24:30.454Z,9.70
2023-02-17T07:26:58.467Z,9.70
2023-02-17T07:29:26.472Z,9.70
2023-02-17T07:31:54.524Z,9.70
2023-02-17T07:34:22.608Z,9.70
2023-02-17T07:36:51.962Z,9.70
2023-02-17T07:39:19.992Z,9.70
2023-02-17T07:41:48.030Z,9.70
2023-02-17T07:44:19.417Z,9.60
2023-02-17T07:46:47.458Z,9.70
2023-02-17T07:49:15.437Z,9.70
2023-02-17T07:51:43.442Z,9.70
2023-02-17T07:54:13.328Z,9.70
2023-02-17T07:56:44.898Z,9.70
2023-02-17T07:59:13.961Z,9.70
2023-02-17T08:01:42.476Z,9.70
2023-02-17T08:04:10.555Z,9.70
2023-02-17T08:06:40.902Z,9.70
2023-02-17T08:09:28.169Z,9.70
2023-02-17T08:12:14.912Z,9.70
2023-02-17T08:14:42.970Z,9.70
2023-02-17T08:17:11.034Z,9.70
2023-02-17T08:19:48.141Z,9.70
2023-02-17T08:22:17.271Z,9.70
2023-02-17T08:24:45.602Z,9.70
2023-02-17T08:27:15.961Z,9.70
2023-02-17T08:29:44.361Z,9.70
2023-02-17T08:32:12.746Z,9.70
2023-02-17T08:34:40.838Z,9.70
2023-02-17T08:37:09.979Z,9.70
2023-02-17T08:39:38.655Z,9.70
2023-02-17T08:42:07.150Z,9.70
2023-02-17T08:44:37.694Z,9.70
2023-02-17T08:47:06.917Z,9.70
2023-02-17T08:49:35.815Z,9.70
2023-02-17T08:52:04.181Z,9.70
2023-02-17T08:54:32.384Z,9.70
2023-02-17T08:57:00.564Z,9.70
2023-02-17T08:59:28.592Z,9.70
2023-02-17T09:01:58.426Z,9.70
2023-02-17T09:04:26.554Z,9.80
2023-02-17T09:06:56.594Z,9.80
2023-02-17T09:09:27.700Z,9.80
2023-02-17T09:11:57.298Z,9.80
2023-02-17T09:14:25.712Z,9.80
2023-02-17T09:16:55.143Z,9.80
2023-02-17T09:19:24.700Z,9.80
2023-02-17T09:21:52.814Z,9.80
2023-02-17T09:24:20.833Z,9.80
2023-02-17T09:26:48.893Z,9.80
2023-02-17T09:29:16.948Z,9.80
2023-02-17T09:31:46.054Z,9.90
2023-02-17T09:34:15.166Z,9.80
2023-02-17T09:36:44.658Z,9.80
2023-02-17T09:39:14.131Z,9.90
2023-02-17T09:41:47.182Z,9.90
2023-02-17T09:44:21.683Z,9.90
2023-02-17T09:47:02.166Z,9.90
2023-02-17T09:49:37.964Z,10.00
2023-02-17T09:52:14.203Z,10.00
2023-02-17T09:54:50.647Z,10.00
2023-02-17T09:57:22.644Z,10.00
2023-02-17T09:59:56.192Z,10.00
2023-02-17T10:02:31.423Z,10.00
2023-02-17T10:05:04.006Z,10.00
2023-02-17T10:07:37.875Z,10.00
2023-02-17T10:10:09.790Z,10.00
2023-02-17T10:12:41.286Z,10.00
2023-02-17T10:15:16.076Z,10.10
2023-02-17T10:17:50.051Z,10.10
2023-02-17T10:20:21.536Z,10.00
2023-02-17T10:22:54.647Z,10.10
2023-02-17T10:25:34.710Z,10.10
2023-02-17T10:28:09.842Z,10.10
2023-02-17T10:30:45.882Z,10.10
2023-02-17T10:33:22.541Z,10.20
2023-02-17T10:35:52.779Z,10.20
2023-02-17T10:38:39.295Z,10.10
2023-02-17T10:41:11.856Z,10.20
2023-02-17T10:43:39.892Z,10.20
2023-02-17T10:46:09.204Z,10.30
2023-02-17T10:48:41.727Z,10.30
2023-02-17T10:51:15.689Z,10.30
2023-02-17T10:53:49.111Z,10.30
2023-02-17T10:56:21.957Z,10.30
2023-02-17T10:58:56.192Z,10.30
2023-02-17T11:01:24.279Z,10.30
2023-02-17T11:04:01.986Z,10.30
2023-02-17T11:06:31.429Z,10.30
2023-02-17T11:09:04.229Z,10.30
2023-02-17T11:11:35.598Z,10.30
2023-02-17T11:14:12.427Z,10.30
2023-02-17T11:16:43.137Z,10.30
2023-02-17T11:19:23.280Z,10.40
2023-02-17T11:21:52.819Z,10.40
2023-02-17T11:24:22.260Z,10.30
2023-02-17T11:26:58.268Z,10.40
2023-02-17T11:29:27.126Z,10.40
2023-02-17T11:31:56.872Z,10.40
2023-02-17T11:34:28.284Z,10.40
2023-02-17T11:37:02.353Z,10.40
2023-02-17T11:39:31.758Z,10.40
2023-02-17T11:41:59.780Z,10.40
2023-02-17T11:44:29.278Z,10.50
2023-02-17T11:47:06.961Z,10.50
2023-02-17T11:49:55.409Z,10.50
2023-02-17T11:52:39.524Z,10.50
2023-02-17T11:55:19.898Z,10.60
2023-02-17T11:58:06.829Z,10.60
2023-02-17T12:00:42.761Z,10.60
2023-02-17T12:03:29.809Z,10.60
2023-02-17T12:06:07.923Z,10.60
2023-02-17T12:08:48.511Z,10.60
2023-02-17T12:11:27.499Z,10.60
2023-02-17T12:14:10.866Z,10.60
2023-02-17T12:16:46.856Z,10.60
2023-02-17T12:19:46.280Z,10.70
2023-02-17T12:22:19.040Z,10.70
2023-02-17T12:25:03.988Z,10.70
2023-02-17T12:27:50.720Z,10.70
2023-02-17T12:30:33.582Z,10.70
2023-02-17T12:33:26.122Z,10.70
2023-02-17T12:35:57.612Z,10.70
2023-02-17T12:38:30.587Z,10.70
2023-02-17T12:41:06.595Z,10.70
2023-02-17T12:43:39.948Z,10.70
2023-02-17T12:46:12.936Z,10.70
2023-02-17T12:48:48.657Z,10.70
2023-02-17T12:51:23.452Z,10.80
2023-02-17T12:53:57.327Z,10.70
2023-02-17T12:56:51.511Z,10.70
2023-02-17T12:59:24.236Z,10.70
2023-02-17T13:01:57.404Z,10.70
2023-02-17T13:04:27.155Z,10.70
2023-02-17T13:07:03.739Z,10.70
2023-02-17T13:09:36.445Z,10.70
2023-02-17T13:12:40.495Z,10.70
2023-02-17T13:15:29.672Z,10.70
2023-02-17T13:18:01.272Z,10.80
2023-02-17T13:20:45.909Z,10.80
2023-02-17T13:23:26.841Z,10.80
2023-02-17T13:26:30.261Z,10.80
2023-02-17T13:29:35.626Z,10.80
2023-02-17T13:32:06.974Z,10.90
2023-02-17T13:34:37.897Z,10.90
2023-02-17T13:37:19.429Z,10.90
2023-02-17T13:39:47.714Z,10.90
2023-02-17T13:42:37.973Z,10.90
2023-02-17T13:45:21.106Z,10.90
2023-02-17T13:47:52.729Z,10.90
2023-02-17T13:50:31.690Z,10.90
2023-02-17T13:53:00.593Z,11.00
2023-02-17T13:55:28.934Z,11.00
2023-02-17T13:57:58.764Z,11.00
2023-02-17T14:00:29.412Z,11.10
2023-02-17T14:03:02.899Z,11.10
2023-02-17T14:05:41.868Z,11.10
2023-02-17T14:08:15.537Z,11.20
2023-02-17T14:10:43.819Z,11.20
2023-02-17T14:13:12.955Z,11.20
2023-02-17T14:15:52.381Z,11.20
2023-02-17T14:18:31.611Z,11.20
2023-02-17T14:21:06.352Z,11.20
2023-02-17T14:23:45.707Z,11.20
2023-02-17T14:26:16.484Z,11.20
2023-02-17T14:28:55.094Z,11.20
2023-02-17T14:31:24.892Z,11.20
2023-02-17T14:33:59.888Z,11.10
2023-02-17T14:36:31.369Z,11.10
2023-02-17T14:39:00.220Z,11.00
2023-02-17T14:41:29.032Z,10.90
2023-02-17T14:43:57.310Z,10.90
2023-02-17T14:46:25.642Z,10.90
2023-02-17T14:48:54.368Z,10.80
2023-02-17T14:51:26.212Z,10.80
2023-02-17T14:53:54.291Z,10.70
2023-02-17T14:56:26.299Z,10.60
2023-02-17T14:58:54.521Z,10.60
2023-02-17T15:01:24.900Z,10.60
2023-02-17T15:03:54.356Z,10.50
2023-02-17T15:06:30.051Z,10.50
2023-02-17T15:08:59.580Z,10.50
2023-02-17T15:11:31.446Z,10.40
2023-02-17T15:13:59.472Z,10.40
2023-02-17T15:16:27.836Z,10.30
2023-02-17T15:18:55.972Z,10.30
2023-02-17T15:21:29.060Z,10.30
2023-02-17T15:23:58.219Z,10.30
2023-02-17T15:26:26.722Z,10.20
2023-02-17T15:28:57.083Z,10.20
2023-02-17T15:31:25.658Z,10.10
2023-02-17T15:33:58.008Z,10.10
2023-02-17T15:36:28.935Z,10.10
2023-02-17T15:38:56.952Z,10.00
2023-02-17T15:41:26.918Z,10.00
2023-02-17T15:43:57.200Z,9.90
2023-02-17T15:46:33.058Z,9.90
2023-02-17T15:49:01.339Z,9.80
2023-02-17T15:51:30.716Z,9.80
2023-02-17T15:53:58.984Z,9.70
2023-02-17T15:56:32.324Z,9.70
2023-02-17T15:59:04.293Z,9.60
2023-02-17T16:01:34.556Z,9.50
2023-02-17T16:04:03.029Z,9.50
2023-02-17T16:06:32.352Z,9.40
2023-02-17T16:09:00.340Z,9.40
2023-02-17T16:11:29.180Z,9.40
2023-02-17T16:13:57.828Z,9.30
2023-02-17T16:16:32.271Z,9.20
2023-02-17T16:19:00.809Z,9.20
2023-02-17T16:21:29.205Z,9.20
2023-02-17T16:24:00.340Z,9.20
2023-02-17T16:26:33.528Z,9.10
2023-02-17T16:29:03.248Z,9.00
2023-02-17T16:31:35.752Z,9.00
2023-02-17T16:34:03.960Z,9.00
2023-02-17T16:36:35.830Z,8.90
2023-02-17T16:39:12.914Z,8.80
2023-02-17T16:41:41.175Z,8.80
2023-02-17T16:44:09.416Z,8.80
2023-02-17T16:46:38.469Z,8.70
2023-02-17T16:49:24.174Z,8.70
2023-02-17T16:51:52.599Z,8.70
2023-02-17T16:54:22.065Z,8.60
2023-02-17T16:56:52.562Z,8.60
2023-02-17T16:59:22.512Z,8.60
2023-02-17T17:01:51.007Z,8.50
2023-02-17T17:04:19.060Z,8.50
2023-02-17T17:06:49.407Z,8.50
2023-02-17T17:09:18.839Z,8.50
2023-02-17T17:11:48.470Z,8.40
2023-02-17T17:14:16.683Z,8.40
2023-02-17T17:16:49.989Z,8.40
2023-02-17T17:19:18.218Z,8.40
2023-02-17T17:21:46.280Z,8.40
2023-02-17T17:24:14.291Z,8.40
2023-02-17T17:26:45.135Z,8.40
2023-02-17T17:29:17.039Z,8.30
2023-02-17T17:31:45.334Z,8.30
2023-02-17T17:34:13.467Z,8.30
2023-02-17T17:36:43.649Z,8.30
2023-02-17T17:39:16.153Z,8.30
2023-02-17T17:41:44.362Z,8.20
2023-02-17T17:44:14.101Z,8.20
2023-02-17T17:46:42.303Z,8.20
2023-02-17T17:49:13.141Z,8.20
2023-02-17T17:51:41.415Z,8.10
2023-02-17T17:54:09.679Z,8.10
2023-02-17T17:56:39.169Z,8.10
2023-02-17T17:59:07.613Z,8.10
2023-02-17T18:01:37.199Z,8.10
2023-02-17T18:04:05.401Z,8.10
2023-02-17T18:06:38.511Z,8.10
2023-02-17T18:09:10.872Z,8.10
2023-02-17T18:11:40.684Z,8.00
2023-02-17T18:14:13.868Z,8.00
2023-02-17T18:16:45.232Z,8.00
2023-02-17T18:19:14.242Z,8.00
2023-02-17T18:21:42.463Z,8.00
2023-02-17T18:24:11.032Z,7.90
2023-02-17T18:26:39.169Z,7.90
2023-02-17T18:29:07.188Z,7.90
2023-02-17T18:31:35.304Z,7.90
2023-02-17T18:34:05.136Z,7.90
2023-02-17T18:36:33.232Z,7.90
2023-02-17T18:39:01.233Z,7.90
2023-02-17T18:41:30.768Z,7.90
2023-02-17T18:44:01.291Z,7.80
2023-02-17T18:46:29.585Z,7.90
2023-02-17T18:48:58.093Z,7.80
2023-02-17T18:51:27.709Z,7.80
2023-02-17T18:53:56.501Z,7.80
2023-02-17T18:56:26.904Z,7.80
2023-02-17T18:58:56.152Z,7.80
2023-02-17T19:01:26.161Z,7.80
2023-02-17T19:03:54.230Z,7.80
2023-02-17T19:06:24.740Z,7.80
2023-02-17T19:08:54.698Z,7.80
2023-02-17T19:11:24.155Z,7.70
2023-02-17T19:13:53.131Z,7.80
2023-02-17T19:16:24.275Z,7.70
2023-02-17T19:18:52.865Z,7.70
2023-02-17T19:21:22.125Z,7.70
2023-02-17T19:23:50.209Z,7.70
2023-02-17T19:26:20.449Z,7.70
2023-02-17T19:28:49.025Z,7.60
2023-02-17T19:31:19.157Z,7.60
2023-02-17T19:33:47.854Z,7.60
2023-02-17T19:36:18.442Z,7.60
2023-02-17T19:38:47.101Z,7.50
2023-02-17T19:41:15.638Z,7.50
2023-02-17T19:43:45.735Z,7.50
2023-02-17T19:46:14.710Z,7.50
2023-02-17T19:48:43.157Z,7.50
2023-02-17T19:51:13.677Z,7.50
2023-02-17T19:53:42.936Z,7.50
2023-02-17T19:56:12.756Z,7.40
2023-02-17T19:58:41.679Z,7.40
2023-02-17T20:01:13.370Z,7.40
2023-02-17T20:03:41.571Z,7.40
2023-02-17T20:06:11.882Z,7.40
2023-02-17T20:08:40.488Z,7.40
2023-02-17T20:11:10.128Z,7.40
2023-02-17T20:13:45.722Z,7.40
2023-02-17T20:16:17.288Z,7.40
2023-02-17T20:18:47.429Z,7.30
2023-02-17T20:21:17.814Z,7.40
2023-02-17T20:23:45.989Z,7.40
2023-02-17T20:26:16.225Z,7.40
2023-02-17T20:28:44.430Z,7.30
2023-02-17T20:31:15.353Z,7.30
2023-02-17T20:33:43.475Z,7.30
2023-02-17T20:36:11.885Z,7.30
2023-02-17T20:38:40.240Z,7.30
2023-02-17T20:41:10.476Z,7.30
2023-02-17T20:43:38.969Z,7.20
2023-02-17T20:46:07.904Z,7.20
2023-02-17T20:48:37.435Z,7.10
2023-02-17T20:51:05.753Z,7.10
2023-02-17T20:53:33.882Z,7.10
2023-02-17T20:56:02.074Z,7.20
2023-02-17T20:58:30.130Z,7.20
2023-02-17T21:00:58.173Z,7.20
2023-02-17T21:03:26.212Z,7.20
2023-02-17T21:05:55.628Z,7.20
2023-02-17T21:08:23.636Z,7.10
2023-02-17T21:10:51.635Z,7.10
2023-02-17T21:13:19.727Z,7.10
2023-02-17T21:15:48.069Z,7.20
2023-02-17T21:18:16.639Z,7.10
2023-02-17T21:20:44.674Z,7.10
2023-02-17T21:23:14.062Z,7.20
2023-02-17T21:25:42.104Z,7.20
2023-02-17T21:28:10.073Z,7.10
2023-02-17T21:30:38.093Z,7.10
2023-02-17T21:33:06.151Z,7.10
2023-02-17T21:35:34.131Z,7.00
2023-02-17T21:38:02.180Z,7.00
2023-02-17T21:40:31.828Z,7.00
2023-02-17T21:43:17.242Z,7.00
2023-02-17T21:45:45.703Z,7.00
2023-02-17T21:48:13.919Z,7.00
2023-02-17T21:50:41.923Z,7.00
2023-02-17T21:53:09.957Z,7.00
2023-02-17T21:55:39.307Z,7.00
2023-02-17T21:58:07.315Z,6.90
2023-02-17T22:00:35.424Z,6.90
2023-02-17T22:03:03.483Z,6.90
2023-02-17T22:05:31.705Z,6.90
2023-02-17T22:07:59.695Z,7.00
2023-02-17T22:10:27.747Z,6.90
2023-02-17T22:12:57.109Z,6.90
2023-02-17T22:15:25.099Z,6.90
2023-02-17T22:17:53.088Z,6.90
2023-02-17T22:20:21.274Z,6.90
2023-02-17T22:22:49.357Z,6.90
2023-02-17T22:25:17.666Z,6.90
2023-02-17T22:27:45.712Z,6.90
2023-02-17T22:30:15.497Z,6.90
2023-02-17T22:32:43.871Z,6.90
2023-02-17T22:35:12.391Z,6.90
2023-02-17T22:37:40.492Z,6.90
2023-02-17T22:40:09.779Z,6.90
2023-02-17T22:42:37.772Z,6.90
2023-02-17T22:45:07.153Z,6.90
2023-02-17T22:47:36.624Z,6.90
2023-02-17T22:50:05.414Z,6.90
2023-02-17T22:52:33.608Z,6.90
2023-02-17T22:55:01.781Z,6.90
2023-02-17T22:57:29.745Z,6.90
2023-02-17T22:59:57.756Z,6.90
2023-02-17T23:02:25.789Z,6.90
2023-02-17T23:04:55.140Z,6.90
2023-02-17T23:07:23.567Z,6.80
2023-02-17T23:09:51.712Z,6.90
2023-02-17T23:12:20.132Z,6.80
2023-02-17T23:14:48.125Z,6.90
2023-02-17T23:17:16.471Z,6.80
2023-02-17T23:19:44.504Z,6.80
2023-02-17T23:22:16.615Z,6.80
2023-02-17T23:24:45.088Z,6.80
2023-02-17T23:27:13.628Z,6.80
2023-02-17T23:29:42.876Z,6.80
2023-02-17T23:32:11.107Z,6.70
2023-02-17T23:34:40.262Z,6.70
2023-02-17T23:37:08.300Z,6.70
2023-02-17T23:39:39.184Z,6.70
2023-02-17T23:42:07.493Z,6.70
2023-02-17T23:44:35.518Z,6.70
2023-02-17T23:47:04.262Z,6.70
2023-02-17T23:49:32.267Z,6.70
2023-02-17T23:52:00.620Z,6.70
2023-02-17T23:54:28.819Z,6.70
2023-02-17T23:56:58.172Z,6.80
2023-02-17T23:59:26.191Z,6.80
